Underhill Center, Vermont
Current Conditions -  °F | °C
As of 6:54 PM on Friday 24 Oct 2014 (Local Time) from KBTV Reporting Station
Overcast Overcast  
Wind Chill: 48°   Ceiling: 3800
Heat Index: 48°   Visibility: 10mi
Dew Point: 42°   Wind: 0mph
Humidity: 80%   Direction: NA
Pressure: 29.85"   Gusts: NA
Location:  44.51°N, 72.9°W
Report Text: KBTV 242254Z 00000KT 10SM BKN038 OVC050 09/06 A2985 RMK AO2 SLP111 T00890056
Loading
Personal Weather Stations






























Interactive Weather Map
Tropical Storm Tracking
New forecast layout! Learn more

10-Day Weather Forecast

Advertisements
Track Severe Weather on mobile